sensor_id;sensor_type;location;lat;lon;timestamp;temperature;humidity
61201;DHT22;47065;52.898;6.992;2022-07-22T00:00:32;15.70;99.90
61201;DHT22;47065;52.898;6.992;2022-07-22T00:02:57;15.70;99.90
61201;DHT22;47065;52.898;6.992;2022-07-22T00:05:23;15.70;99.90
61201;DHT22;47065;52.898;6.992;2022-07-22T00:07:49;15.70;99.90
61201;DHT22;47065;52.898;6.992;2022-07-22T00:10:14;15.60;99.90
61201;DHT22;47065;52.898;6.992;2022-07-22T00:12:40;15.60;99.90
61201;DHT22;47065;52.898;6.992;2022-07-22T00:15:07;15.60;99.90
61201;DHT22;47065;52.898;6.992;2022-07-22T00:17:33;15.60;99.90
61201;DHT22;47065;52.898;6.992;2022-07-22T00:19:59;15.50;99.90
61201;DHT22;47065;52.898;6.992;2022-07-22T00:22:25;15.50;99.90
61201;DHT22;47065;52.898;6.992;2022-07-22T00:24:51;15.50;99.90
61201;DHT22;47065;52.898;6.992;2022-07-22T00:27:16;15.50;99.90
61201;DHT22;47065;52.898;6.992;2022-07-22T00:29:42;15.50;99.90
61201;DHT22;47065;52.898;6.992;2022-07-22T00:32:07;15.50;99.90
61201;DHT22;47065;52.898;6.992;2022-07-22T00:34:33;15.50;99.90
61201;DHT22;47065;52.898;6.992;2022-07-22T00:36:58;15.50;99.90
61201;DHT22;47065;52.898;6.992;2022-07-22T00:39:24;15.50;99.90
61201;DHT22;47065;52.898;6.992;2022-07-22T00:41:50;15.40;99.90
61201;DHT22;47065;52.898;6.992;2022-07-22T00:44:15;15.40;99.90
61201;DHT22;47065;52.898;6.992;2022-07-22T00:46:41;15.30;99.90
61201;DHT22;47065;52.898;6.992;2022-07-22T00:49:08;15.30;99.90
61201;DHT22;47065;52.898;6.992;2022-07-22T00:51:34;15.20;99.90
61201;DHT22;47065;52.898;6.992;2022-07-22T00:54:00;15.20;99.90
61201;DHT22;47065;52.898;6.992;2022-07-22T00:56:27;15.20;99.90
61201;DHT22;47065;52.898;6.992;2022-07-22T00:58:55;15.20;99.90
61201;DHT22;47065;52.898;6.992;2022-07-22T01:01:22;15.20;99.90
61201;DHT22;47065;52.898;6.992;2022-07-22T01:03:48;15.20;99.90
61201;DHT22;47065;52.898;6.992;2022-07-22T01:06:13;15.20;99.90
61201;DHT22;47065;52.898;6.992;2022-07-22T01:08:39;15.20;99.90
61201;DHT22;47065;52.898;6.992;2022-07-22T01:11:17;15.20;99.90
61201;DHT22;47065;52.898;6.992;2022-07-22T01:13:44;15.20;99.90
61201;DHT22;47065;52.898;6.992;2022-07-22T01:16:11;15.20;99.90
61201;DHT22;47065;52.898;6.992;2022-07-22T01:18:38;15.20;99.90
61201;DHT22;47065;52.898;6.992;2022-07-22T01:21:05;15.10;99.90
61201;DHT22;47065;52.898;6.992;2022-07-22T01:23:31;15.20;99.90
61201;DHT22;47065;52.898;6.992;2022-07-22T01:25:57;15.20;99.90
61201;DHT22;47065;52.898;6.992;2022-07-22T01:28:23;15.20;99.90
61201;DHT22;47065;52.898;6.992;2022-07-22T01:30:49;15.20;99.90
61201;DHT22;47065;52.898;6.992;2022-07-22T01:33:19;15.10;99.90
61201;DHT22;47065;52.898;6.992;2022-07-22T01:35:45;15.20;99.90
61201;DHT22;47065;52.898;6.992;2022-07-22T01:38:12;15.20;99.90
61201;DHT22;47065;52.898;6.992;2022-07-22T01:40:39;15.20;99.90
61201;DHT22;47065;52.898;6.992;2022-07-22T01:43:05;15.20;99.90
61201;DHT22;47065;52.898;6.992;2022-07-22T01:45:30;15.10;99.90
61201;DHT22;47065;52.898;6.992;2022-07-22T01:47:56;15.20;99.90
61201;DHT22;47065;52.898;6.992;2022-07-22T01:50:22;15.20;99.90
61201;DHT22;47065;52.898;6.992;2022-07-22T01:52:47;15.20;99.90
61201;DHT22;47065;52.898;6.992;2022-07-22T01:55:13;15.20;99.90
61201;DHT22;47065;52.898;6.992;2022-07-22T01:57:39;15.20;99.90
61201;DHT22;47065;52.898;6.992;2022-07-22T02:00:06;15.20;99.90
61201;DHT22;47065;52.898;6.992;2022-07-22T02:02:33;15.30;99.90
61201;DHT22;47065;52.898;6.992;2022-07-22T02:04:59;15.30;99.90
61201;DHT22;47065;52.898;6.992;2022-07-22T02:07:24;15.30;99.90
61201;DHT22;47065;52.898;6.992;2022-07-22T02:09:52;15.30;99.90
61201;DHT22;47065;52.898;6.992;2022-07-22T02:12:18;15.30;99.90
61201;DHT22;47065;52.898;6.992;2022-07-22T02:14:44;15.30;99.90
61201;DHT22;47065;52.898;6.992;2022-07-22T02:17:12;15.30;99.90
61201;DHT22;47065;52.898;6.992;2022-07-22T02:19:38;15.30;99.90
61201;DHT22;47065;52.898;6.992;2022-07-22T02:22:04;15.30;99.90
61201;DHT22;47065;52.898;6.992;2022-07-22T02:24:30;15.30;99.90
61201;DHT22;47065;52.898;6.992;2022-07-22T02:26:56;15.30;99.90
61201;DHT22;47065;52.898;6.992;2022-07-22T02:29:22;15.30;99.90
61201;DHT22;47065;52.898;6.992;2022-07-22T02:31:47;15.30;99.90
61201;DHT22;47065;52.898;6.992;2022-07-22T02:34:13;15.30;99.90
61201;DHT22;47065;52.898;6.992;2022-07-22T02:36:39;15.30;99.90
61201;DHT22;47065;52.898;6.992;2022-07-22T02:39:05;15.30;99.90
61201;DHT22;47065;52.898;6.992;2022-07-22T02:41:31;15.30;99.90
61201;DHT22;47065;52.898;6.992;2022-07-22T02:43:57;15.20;99.90
61201;DHT22;47065;52.898;6.992;2022-07-22T02:46:23;15.20;99.90
61201;DHT22;47065;52.898;6.992;2022-07-22T02:48:49;15.20;99.90
61201;DHT22;47065;52.898;6.992;2022-07-22T02:51:15;15.20;99.90
61201;DHT22;47065;52.898;6.992;2022-07-22T02:53:41;15.10;99.90
61201;DHT22;47065;52.898;6.992;2022-07-22T02:56:07;15.10;99.90
61201;DHT22;47065;52.898;6.992;2022-07-22T02:58:33;15.00;99.90
61201;DHT22;47065;52.898;6.992;2022-07-22T03:00:59;15.00;99.90
61201;DHT22;47065;52.898;6.992;2022-07-22T03:03:24;15.00;99.90
61201;DHT22;47065;52.898;6.992;2022-07-22T03:05:50;15.00;99.90
61201;DHT22;47065;52.898;6.992;2022-07-22T03:08:16;15.00;99.90
61201;DHT22;47065;52.898;6.992;2022-07-22T03:10:42;15.00;99.90
61201;DHT22;47065;52.898;6.992;2022-07-22T03:13:08;15.00;99.90
61201;DHT22;47065;52.898;6.992;2022-07-22T03:15:33;15.10;99.90
61201;DHT22;47065;52.898;6.992;2022-07-22T03:17:59;15.00;99.90
61201;DHT22;47065;52.898;6.992;2022-07-22T03:20:24;15.00;99.90
61201;DHT22;47065;52.898;6.992;2022-07-22T03:22:50;15.10;99.90
61201;DHT22;47065;52.898;6.992;2022-07-22T03:25:16;15.10;99.90
61201;DHT22;47065;52.898;6.992;2022-07-22T03:27:41;15.10;99.90
61201;DHT22;47065;52.898;6.992;2022-07-22T03:30:07;15.10;99.90
61201;DHT22;47065;52.898;6.992;2022-07-22T03:32:33;15.10;99.90
61201;DHT22;47065;52.898;6.992;2022-07-22T03:34:59;15.10;99.90
61201;DHT22;47065;52.898;6.992;2022-07-22T03:37:24;15.10;99.90
61201;DHT22;47065;52.898;6.992;2022-07-22T03:39:50;15.10;99.90
61201;DHT22;47065;52.898;6.992;2022-07-22T03:42:16;15.10;99.90
61201;DHT22;47065;52.898;6.992;2022-07-22T03:44:41;15.10;99.90
61201;DHT22;47065;52.898;6.992;2022-07-22T03:47:07;15.10;99.90
61201;DHT22;47065;52.898;6.992;2022-07-22T03:49:32;15.10;99.90
61201;DHT22;47065;52.898;6.992;2022-07-22T03:51:58;15.10;99.90
61201;DHT22;47065;52.898;6.992;2022-07-22T03:54:24;15.10;99.90
61201;DHT22;47065;52.898;6.992;2022-07-22T03:56:50;15.10;99.90
61201;DHT22;47065;52.898;6.992;2022-07-22T03:59:16;15.10;99.90
61201;DHT22;47065;52.898;6.992;2022-07-22T04:01:42;15.10;99.90
61201;DHT22;47065;52.898;6.992;2022-07-22T04:04:08;15.10;99.90
61201;DHT22;47065;52.898;6.992;2022-07-22T04:06:34;15.10;99.90
61201;DHT22;47065;52.898;6.992;2022-07-22T04:08:59;15.10;99.90
61201;DHT22;47065;52.898;6.992;2022-07-22T04:11:25;15.10;99.90
61201;DHT22;47065;52.898;6.992;2022-07-22T04:13:51;15.10;99.90
61201;DHT22;47065;52.898;6.992;2022-07-22T04:16:17;15.10;99.90
61201;DHT22;47065;52.898;6.992;2022-07-22T04:18:43;15.10;99.90
61201;DHT22;47065;52.898;6.992;2022-07-22T04:21:09;15.10;99.90
61201;DHT22;47065;52.898;6.992;2022-07-22T04:23:35;15.10;99.90
61201;DHT22;47065;52.898;6.992;2022-07-22T04:26:01;15.10;99.90
61201;DHT22;47065;52.898;6.992;2022-07-22T04:28:26;15.10;99.90
61201;DHT22;47065;52.898;6.992;2022-07-22T04:30:52;15.10;99.90
61201;DHT22;47065;52.898;6.992;2022-07-22T04:33:17;15.10;99.90
61201;DHT22;47065;52.898;6.992;2022-07-22T04:35:44;15.10;99.90
61201;DHT22;47065;52.898;6.992;2022-07-22T04:38:09;15.10;99.90
61201;DHT22;47065;52.898;6.992;2022-07-22T04:40:35;15.20;99.90
61201;DHT22;47065;52.898;6.992;2022-07-22T04:43:01;15.20;99.90
61201;DHT22;47065;52.898;6.992;2022-07-22T04:45:26;15.20;99.90
61201;DHT22;47065;52.898;6.992;2022-07-22T04:47:52;15.20;99.90
61201;DHT22;47065;52.898;6.992;2022-07-22T04:50:18;15.20;99.90
61201;DHT22;47065;52.898;6.992;2022-07-22T04:52:43;15.20;99.90
61201;DHT22;47065;52.898;6.992;2022-07-22T04:55:09;15.30;99.90
61201;DHT22;47065;52.898;6.992;2022-07-22T04:57:35;15.30;99.90
61201;DHT22;47065;52.898;6.992;2022-07-22T05:00:01;15.30;99.90
61201;DHT22;47065;52.898;6.992;2022-07-22T05:02:26;15.30;99.90
61201;DHT22;47065;52.898;6.992;2022-07-22T05:04:52;15.40;99.90
61201;DHT22;47065;52.898;6.992;2022-07-22T05:07:17;15.40;99.90
61201;DHT22;47065;52.898;6.992;2022-07-22T05:09:43;15.40;99.90
61201;DHT22;47065;52.898;6.992;2022-07-22T05:12:08;15.40;99.90
61201;DHT22;47065;52.898;6.992;2022-07-22T05:14:34;15.40;99.90
61201;DHT22;47065;52.898;6.992;2022-07-22T05:17:00;15.40;99.90
61201;DHT22;47065;52.898;6.992;2022-07-22T05:19:25;15.50;99.90
61201;DHT22;47065;52.898;6.992;2022-07-22T05:21:51;15.40;99.90
61201;DHT22;47065;52.898;6.992;2022-07-22T05:24:17;15.50;99.90
61201;DHT22;47065;52.898;6.992;2022-07-22T05:26:42;15.50;99.90
61201;DHT22;47065;52.898;6.992;2022-07-22T05:29:08;15.60;99.90
61201;DHT22;47065;52.898;6.992;2022-07-22T05:31:34;15.60;99.90
61201;DHT22;47065;52.898;6.992;2022-07-22T05:33:59;15.60;99.90
61201;DHT22;47065;52.898;6.992;2022-07-22T05:36:25;15.60;99.90
61201;DHT22;47065;52.898;6.992;2022-07-22T05:38:51;15.70;99.90
61201;DHT22;47065;52.898;6.992;2022-07-22T05:41:17;15.70;99.90
61201;DHT22;47065;52.898;6.992;2022-07-22T05:43:42;15.70;99.90
61201;DHT22;47065;52.898;6.992;2022-07-22T05:46:08;15.70;99.90
61201;DHT22;47065;52.898;6.992;2022-07-22T05:48:34;15.80;99.90
61201;DHT22;47065;52.898;6.992;2022-07-22T05:51:00;15.80;99.90
61201;DHT22;47065;52.898;6.992;2022-07-22T05:53:25;15.80;99.90
61201;DHT22;47065;52.898;6.992;2022-07-22T05:55:51;15.80;99.90
61201;DHT22;47065;52.898;6.992;2022-07-22T05:58:16;15.90;99.90
61201;DHT22;47065;52.898;6.992;2022-07-22T06:00:42;15.90;99.90
61201;DHT22;47065;52.898;6.992;2022-07-22T06:03:08;15.90;99.90
61201;DHT22;47065;52.898;6.992;2022-07-22T06:05:34;16.00;99.90
61201;DHT22;47065;52.898;6.992;2022-07-22T06:08:03;16.00;99.90
61201;DHT22;47065;52.898;6.992;2022-07-22T06:10:29;16.00;99.90
61201;DHT22;47065;52.898;6.992;2022-07-22T06:12:55;16.00;99.90
61201;DHT22;47065;52.898;6.992;2022-07-22T06:15:20;16.10;99.90
61201;DHT22;47065;52.898;6.992;2022-07-22T06:17:46;16.00;99.90
61201;DHT22;47065;52.898;6.992;2022-07-22T06:20:11;16.10;99.90
61201;DHT22;47065;52.898;6.992;2022-07-22T06:22:39;16.10;99.90
61201;DHT22;47065;52.898;6.992;2022-07-22T06:25:05;16.10;99.90
61201;DHT22;47065;52.898;6.992;2022-07-22T06:27:31;16.10;99.90
61201;DHT22;47065;52.898;6.992;2022-07-22T06:29:57;16.10;99.90
61201;DHT22;47065;52.898;6.992;2022-07-22T06:32:23;16.10;99.90
61201;DHT22;47065;52.898;6.992;2022-07-22T06:34:49;16.10;99.90
61201;DHT22;47065;52.898;6.992;2022-07-22T06:37:14;16.20;99.90
61201;DHT22;47065;52.898;6.992;2022-07-22T06:39:40;16.20;99.90
61201;DHT22;47065;52.898;6.992;2022-07-22T06:42:05;16.20;99.90
61201;DHT22;47065;52.898;6.992;2022-07-22T06:44:31;16.20;99.90
61201;DHT22;47065;52.898;6.992;2022-07-22T06:46:57;16.30;99.90
61201;DHT22;47065;52.898;6.992;2022-07-22T06:49:22;16.30;99.90
61201;DHT22;47065;52.898;6.992;2022-07-22T06:51:48;16.30;99.90
61201;DHT22;47065;52.898;6.992;2022-07-22T06:54:13;16.30;99.90
61201;DHT22;47065;52.898;6.992;2022-07-22T06:56:39;16.30;99.90
61201;DHT22;47065;52.898;6.992;2022-07-22T06:59:05;16.40;99.90
61201;DHT22;47065;52.898;6.992;2022-07-22T07:01:30;16.40;99.90
61201;DHT22;47065;52.898;6.992;2022-07-22T07:03:56;16.50;99.90
61201;DHT22;47065;52.898;6.992;2022-07-22T07:06:21;16.50;99.90
61201;DHT22;47065;52.898;6.992;2022-07-22T07:08:47;16.50;99.90
61201;DHT22;47065;52.898;6.992;2022-07-22T07:11:14;16.60;99.90
61201;DHT22;47065;52.898;6.992;2022-07-22T07:13:39;16.60;99.90
61201;DHT22;47065;52.898;6.992;2022-07-22T07:16:05;16.70;99.90
61201;DHT22;47065;52.898;6.992;2022-07-22T07:18:31;16.70;99.90
61201;DHT22;47065;52.898;6.992;2022-07-22T07:20:56;16.80;99.90
61201;DHT22;47065;52.898;6.992;2022-07-22T07:23:22;16.80;99.90
61201;DHT22;47065;52.898;6.992;2022-07-22T07:25:48;16.80;99.90
61201;DHT22;47065;52.898;6.992;2022-07-22T07:28:14;16.90;99.90
61201;DHT22;47065;52.898;6.992;2022-07-22T07:30:39;17.00;99.90
61201;DHT22;47065;52.898;6.992;2022-07-22T07:33:05;17.10;99.90
61201;DHT22;47065;52.898;6.992;2022-07-22T07:35:31;17.10;99.90
61201;DHT22;47065;52.898;6.992;2022-07-22T07:37:56;17.20;99.90
61201;DHT22;47065;52.898;6.992;2022-07-22T07:40:22;17.30;99.90
61201;DHT22;47065;52.898;6.992;2022-07-22T07:42:48;17.30;99.90
61201;DHT22;47065;52.898;6.992;2022-07-22T07:45:13;17.40;99.90
61201;DHT22;47065;52.898;6.992;2022-07-22T07:47:40;17.40;99.90
61201;DHT22;47065;52.898;6.992;2022-07-22T07:50:06;17.50;99.90
61201;DHT22;47065;52.898;6.992;2022-07-22T07:52:40;17.50;99.90
61201;DHT22;47065;52.898;6.992;2022-07-22T07:55:07;17.50;99.90
61201;DHT22;47065;52.898;6.992;2022-07-22T07:57:33;17.50;99.90
61201;DHT22;47065;52.898;6.992;2022-07-22T07:59:59;17.60;99.90
61201;DHT22;47065;52.898;6.992;2022-07-22T08:02:25;17.80;99.90
61201;DHT22;47065;52.898;6.992;2022-07-22T08:04:50;18.00;99.90
61201;DHT22;47065;52.898;6.992;2022-07-22T08:07:16;18.30;99.90
61201;DHT22;47065;52.898;6.992;2022-07-22T08:09:42;18.40;99.90
61201;DHT22;47065;52.898;6.992;2022-07-22T08:12:07;18.50;99.90
61201;DHT22;47065;52.898;6.992;2022-07-22T08:14:33;18.50;99.90
61201;DHT22;47065;52.898;6.992;2022-07-22T08:16:59;18.60;99.90
61201;DHT22;47065;52.898;6.992;2022-07-22T08:19:25;18.60;99.90
61201;DHT22;47065;52.898;6.992;2022-07-22T08:21:50;18.80;99.90
61201;DHT22;47065;52.898;6.992;2022-07-22T08:24:16;19.00;99.90
61201;DHT22;47065;52.898;6.992;2022-07-22T08:26:41;19.00;99.90
61201;DHT22;47065;52.898;6.992;2022-07-22T08:29:07;19.10;99.90
61201;DHT22;47065;52.898;6.992;2022-07-22T08:31:35;19.10;99.90
61201;DHT22;47065;52.898;6.992;2022-07-22T08:34:02;19.00;99.90
61201;DHT22;47065;52.898;6.992;2022-07-22T08:36:28;18.90;99.90
61201;DHT22;47065;52.898;6.992;2022-07-22T08:38:54;18.80;99.90
61201;DHT22;47065;52.898;6.992;2022-07-22T08:41:22;18.80;99.90
61201;DHT22;47065;52.898;6.992;2022-07-22T08:43:48;18.70;99.90
61201;DHT22;47065;52.898;6.992;2022-07-22T08:46:13;18.60;99.90
61201;DHT22;47065;52.898;6.992;2022-07-22T08:48:40;18.60;99.90
61201;DHT22;47065;52.898;6.992;2022-07-22T08:51:06;18.80;99.90
61201;DHT22;47065;52.898;6.992;2022-07-22T08:53:32;19.00;99.90
61201;DHT22;47065;52.898;6.992;2022-07-22T08:55:58;19.20;99.90
61201;DHT22;47065;52.898;6.992;2022-07-22T08:58:27;19.30;99.90
61201;DHT22;47065;52.898;6.992;2022-07-22T09:01:13;19.40;99.90
61201;DHT22;47065;52.898;6.992;2022-07-22T09:03:55;19.50;99.90
61201;DHT22;47065;52.898;6.992;2022-07-22T09:06:27;19.60;99.90
61201;DHT22;47065;52.898;6.992;2022-07-22T09:09:02;19.60;99.90
61201;DHT22;47065;52.898;6.992;2022-07-22T09:11:30;19.40;99.90
61201;DHT22;47065;52.898;6.992;2022-07-22T09:14:00;19.40;99.90
61201;DHT22;47065;52.898;6.992;2022-07-22T09:19:08;19.20;99.90
61201;DHT22;47065;52.898;6.992;2022-07-22T09:21:36;19.10;99.90
61201;DHT22;47065;52.898;6.992;2022-07-22T09:24:03;19.10;99.90
61201;DHT22;47065;52.898;6.992;2022-07-22T09:26:35;19.40;99.90
61201;DHT22;47065;52.898;6.992;2022-07-22T09:29:01;19.40;99.90
61201;DHT22;47065;52.898;6.992;2022-07-22T09:31:29;19.30;99.90
61201;DHT22;47065;52.898;6.992;2022-07-22T09:33:57;19.10;99.90
61201;DHT22;47065;52.898;6.992;2022-07-22T09:36:23;19.30;99.90
61201;DHT22;47065;52.898;6.992;2022-07-22T09:38:48;19.40;99.90
61201;DHT22;47065;52.898;6.992;2022-07-22T09:41:14;19.30;99.90
61201;DHT22;47065;52.898;6.992;2022-07-22T09:43:40;19.30;99.90
61201;DHT22;47065;52.898;6.992;2022-07-22T09:46:06;19.20;99.90
61201;DHT22;47065;52.898;6.992;2022-07-22T09:48:32;19.20;99.90
61201;DHT22;47065;52.898;6.992;2022-07-22T09:50:58;19.20;99.90
61201;DHT22;47065;52.898;6.992;2022-07-22T09:53:26;19.20;99.90
61201;DHT22;47065;52.898;6.992;2022-07-22T09:55:53;19.10;99.90
61201;DHT22;47065;52.898;6.992;2022-07-22T09:58:19;19.10;99.90
61201;DHT22;47065;52.898;6.992;2022-07-22T10:00:45;19.00;99.90
61201;DHT22;47065;52.898;6.992;2022-07-22T10:03:15;19.10;99.90
61201;DHT22;47065;52.898;6.992;2022-07-22T10:05:42;19.30;99.90
61201;DHT22;47065;52.898;6.992;2022-07-22T10:08:09;19.30;99.90
61201;DHT22;47065;52.898;6.992;2022-07-22T10:10:37;19.30;99.90
61201;DHT22;47065;52.898;6.992;2022-07-22T10:13:05;19.30;99.90
61201;DHT22;47065;52.898;6.992;2022-07-22T10:15:32;19.20;99.90
61201;DHT22;47065;52.898;6.992;2022-07-22T10:18:00;19.10;99.90
61201;DHT22;47065;52.898;6.992;2022-07-22T10:20:28;19.10;99.90
61201;DHT22;47065;52.898;6.992;2022-07-22T10:22:56;19.10;99.90
61201;DHT22;47065;52.898;6.992;2022-07-22T10:25:25;19.20;99.90
61201;DHT22;47065;52.898;6.992;2022-07-22T10:30:31;19.70;99.90
61201;DHT22;47065;52.898;6.992;2022-07-22T10:33:07;19.80;99.90
61201;DHT22;47065;52.898;6.992;2022-07-22T10:35:36;20.00;99.90
61201;DHT22;47065;52.898;6.992;2022-07-22T10:38:05;20.00;99.90
61201;DHT22;47065;52.898;6.992;2022-07-22T10:43:11;20.00;99.90
61201;DHT22;47065;52.898;6.992;2022-07-22T10:45:44;19.90;99.90
61201;DHT22;47065;52.898;6.992;2022-07-22T10:48:13;20.00;99.90
61201;DHT22;47065;52.898;6.992;2022-07-22T10:50:41;20.10;99.90
61201;DHT22;47065;52.898;6.992;2022-07-22T10:55:57;20.80;99.90
61201;DHT22;47065;52.898;6.992;2022-07-22T11:01:07;20.90;99.50
61201;DHT22;47065;52.898;6.992;2022-07-22T11:03:34;21.00;99.90
61201;DHT22;47065;52.898;6.992;2022-07-22T11:06:21;21.00;99.90
61201;DHT22;47065;52.898;6.992;2022-07-22T11:08:50;20.80;99.90
61201;DHT22;47065;52.898;6.992;2022-07-22T11:11:16;20.70;99.90
61201;DHT22;47065;52.898;6.992;2022-07-22T11:13:43;20.60;99.90
61201;DHT22;47065;52.898;6.992;2022-07-22T11:16:26;20.50;99.90
61201;DHT22;47065;52.898;6.992;2022-07-22T11:18:58;20.60;99.90
61201;DHT22;47065;52.898;6.992;2022-07-22T11:21:30;20.60;99.90
61201;DHT22;47065;52.898;6.992;2022-07-22T11:23:59;20.50;99.90
61201;DHT22;47065;52.898;6.992;2022-07-22T11:26:47;20.70;99.90
61201;DHT22;47065;52.898;6.992;2022-07-22T11:29:28;20.80;99.90
61201;DHT22;47065;52.898;6.992;2022-07-22T11:31:57;20.80;99.90
61201;DHT22;47065;52.898;6.992;2022-07-22T11:34:24;20.80;99.90
61201;DHT22;47065;52.898;6.992;2022-07-22T11:36:50;20.80;99.90
61201;DHT22;47065;52.898;6.992;2022-07-22T11:39:25;20.80;99.90
61201;DHT22;47065;52.898;6.992;2022-07-22T11:41:52;20.80;99.90
61201;DHT22;47065;52.898;6.992;2022-07-22T11:44:19;20.90;99.90
61201;DHT22;47065;52.898;6.992;2022-07-22T11:46:45;20.80;99.90
61201;DHT22;47065;52.898;6.992;2022-07-22T11:49:14;20.80;99.90
61201;DHT22;47065;52.898;6.992;2022-07-22T11:51:40;20.70;99.90
61201;DHT22;47065;52.898;6.992;2022-07-22T11:54:06;20.60;99.90
61201;DHT22;47065;52.898;6.992;2022-07-22T11:56:32;20.60;99.90
61201;DHT22;47065;52.898;6.992;2022-07-22T11:58:58;20.60;99.90
61201;DHT22;47065;52.898;6.992;2022-07-22T12:01:28;20.40;99.90
61201;DHT22;47065;52.898;6.992;2022-07-22T12:03:57;20.20;99.90
61201;DHT22;47065;52.898;6.992;2022-07-22T12:06:24;20.10;99.90
61201;DHT22;47065;52.898;6.992;2022-07-22T12:09:04;20.00;99.90
61201;DHT22;47065;52.898;6.992;2022-07-22T12:11:29;20.00;99.90
61201;DHT22;47065;52.898;6.992;2022-07-22T12:13:55;20.00;99.90
61201;DHT22;47065;52.898;6.992;2022-07-22T12:16:24;20.10;99.90
61201;DHT22;47065;52.898;6.992;2022-07-22T12:18:55;20.10;99.90
61201;DHT22;47065;52.898;6.992;2022-07-22T12:21:21;20.10;99.90
61201;DHT22;47065;52.898;6.992;2022-07-22T12:24:02;20.20;99.90
61201;DHT22;47065;52.898;6.992;2022-07-22T12:26:40;20.10;99.90
61201;DHT22;47065;52.898;6.992;2022-07-22T12:29:19;20.00;99.90
61201;DHT22;47065;52.898;6.992;2022-07-22T12:31:54;19.90;99.90
61201;DHT22;47065;52.898;6.992;2022-07-22T12:36:57;19.80;99.90
61201;DHT22;47065;52.898;6.992;2022-07-22T12:39:23;19.70;99.90
61201;DHT22;47065;52.898;6.992;2022-07-22T12:41:53;19.70;99.90
61201;DHT22;47065;52.898;6.992;2022-07-22T12:44:24;19.90;99.90
61201;DHT22;47065;52.898;6.992;2022-07-22T12:46:53;20.00;99.90
61201;DHT22;47065;52.898;6.992;2022-07-22T12:49:22;20.10;99.90
61201;DHT22;47065;52.898;6.992;2022-07-22T12:52:11;20.20;99.90
61201;DHT22;47065;52.898;6.992;2022-07-22T12:54:38;20.20;99.90
61201;DHT22;47065;52.898;6.992;2022-07-22T12:57:06;20.20;99.90
61201;DHT22;47065;52.898;6.992;2022-07-22T12:59:33;20.20;99.90
61201;DHT22;47065;52.898;6.992;2022-07-22T13:01:59;20.20;99.90
61201;DHT22;47065;52.898;6.992;2022-07-22T13:04:24;20.20;99.90
61201;DHT22;47065;52.898;6.992;2022-07-22T13:06:50;20.30;99.90
61201;DHT22;47065;52.898;6.992;2022-07-22T13:09:16;20.60;99.90
61201;DHT22;47065;52.898;6.992;2022-07-22T13:11:42;20.90;99.90
61201;DHT22;47065;52.898;6.992;2022-07-22T13:14:13;21.00;99.90
61201;DHT22;47065;52.898;6.992;2022-07-22T13:16:40;21.20;99.90
61201;DHT22;47065;52.898;6.992;2022-07-22T13:19:05;21.40;99.90
61201;DHT22;47065;52.898;6.992;2022-07-22T13:21:31;21.40;99.90
61201;DHT22;47065;52.898;6.992;2022-07-22T13:23:57;21.30;99.90
61201;DHT22;47065;52.898;6.992;2022-07-22T13:26:23;21.00;99.90
61201;DHT22;47065;52.898;6.992;2022-07-22T13:28:50;20.90;99.90
61201;DHT22;47065;52.898;6.992;2022-07-22T13:31:15;20.90;99.90
61201;DHT22;47065;52.898;6.992;2022-07-22T13:33:41;20.90;99.90
61201;DHT22;47065;52.898;6.992;2022-07-22T13:36:06;21.20;99.90
61201;DHT22;47065;52.898;6.992;2022-07-22T13:38:32;21.40;99.90
61201;DHT22;47065;52.898;6.992;2022-07-22T13:40:58;21.60;99.90
61201;DHT22;47065;52.898;6.992;2022-07-22T13:43:24;21.70;99.90
61201;DHT22;47065;52.898;6.992;2022-07-22T13:45:51;21.70;99.90
61201;DHT22;47065;52.898;6.992;2022-07-22T13:48:17;21.70;99.90
61201;DHT22;47065;52.898;6.992;2022-07-22T13:50:44;21.70;99.90
61201;DHT22;47065;52.898;6.992;2022-07-22T13:53:10;21.70;99.90
61201;DHT22;47065;52.898;6.992;2022-07-22T13:55:38;21.60;99.90
61201;DHT22;47065;52.898;6.992;2022-07-22T13:58:04;21.50;99.90
61201;DHT22;47065;52.898;6.992;2022-07-22T14:00:30;21.60;99.90
61201;DHT22;47065;52.898;6.992;2022-07-22T14:02:55;21.70;99.90
61201;DHT22;47065;52.898;6.992;2022-07-22T14:05:21;21.90;99.90
61201;DHT22;47065;52.898;6.992;2022-07-22T14:07:47;21.90;99.90
61201;DHT22;47065;52.898;6.992;2022-07-22T14:10:12;21.80;99.90
61201;DHT22;47065;52.898;6.992;2022-07-22T14:12:40;21.70;99.90
61201;DHT22;47065;52.898;6.992;2022-07-22T14:15:07;21.50;99.90
61201;DHT22;47065;52.898;6.992;2022-07-22T14:17:33;21.30;99.90
61201;DHT22;47065;52.898;6.992;2022-07-22T14:19:59;21.10;99.90
61201;DHT22;47065;52.898;6.992;2022-07-22T14:22:25;21.00;99.90
61201;DHT22;47065;52.898;6.992;2022-07-22T14:24:51;20.90;99.90
61201;DHT22;47065;52.898;6.992;2022-07-22T14:27:17;20.90;98.80
61201;DHT22;47065;52.898;6.992;2022-07-22T14:29:42;20.80;99.30
61201;DHT22;47065;52.898;6.992;2022-07-22T14:32:08;20.80;99.90
61201;DHT22;47065;52.898;6.992;2022-07-22T14:34:33;20.70;99.90
61201;DHT22;47065;52.898;6.992;2022-07-22T14:36:59;20.60;99.90
61201;DHT22;47065;52.898;6.992;2022-07-22T14:39:25;20.50;99.90
61201;DHT22;47065;52.898;6.992;2022-07-22T14:41:50;20.40;99.90
61201;DHT22;47065;52.898;6.992;2022-07-22T14:44:16;20.30;99.90
61201;DHT22;47065;52.898;6.992;2022-07-22T14:46:41;20.20;99.90
61201;DHT22;47065;52.898;6.992;2022-07-22T14:49:07;20.20;99.90
61201;DHT22;47065;52.898;6.992;2022-07-22T14:51:33;20.30;99.90
61201;DHT22;47065;52.898;6.992;2022-07-22T14:53:59;20.50;99.90
61201;DHT22;47065;52.898;6.992;2022-07-22T14:56:24;20.60;99.90
61201;DHT22;47065;52.898;6.992;2022-07-22T14:58:50;20.60;99.90
61201;DHT22;47065;52.898;6.992;2022-07-22T15:01:16;20.60;99.90
61201;DHT22;47065;52.898;6.992;2022-07-22T15:03:41;20.50;99.90
61201;DHT22;47065;52.898;6.992;2022-07-22T15:06:08;20.50;99.90
61201;DHT22;47065;52.898;6.992;2022-07-22T15:08:33;20.40;99.90
61201;DHT22;47065;52.898;6.992;2022-07-22T15:10:59;20.50;99.90
61201;DHT22;47065;52.898;6.992;2022-07-22T15:13:26;20.70;99.90
61201;DHT22;47065;52.898;6.992;2022-07-22T15:15:52;20.80;99.90
61201;DHT22;47065;52.898;6.992;2022-07-22T15:18:17;20.90;99.90
61201;DHT22;47065;52.898;6.992;2022-07-22T15:20:43;21.00;99.90
61201;DHT22;47065;52.898;6.992;2022-07-22T15:23:09;21.00;99.90
61201;DHT22;47065;52.898;6.992;2022-07-22T15:25:34;20.80;99.90
61201;DHT22;47065;52.898;6.992;2022-07-22T15:28:00;20.70;99.90
61201;DHT22;47065;52.898;6.992;2022-07-22T15:30:26;20.60;99.90
61201;DHT22;47065;52.898;6.992;2022-07-22T15:32:52;20.60;99.90
61201;DHT22;47065;52.898;6.992;2022-07-22T15:35:17;20.70;99.90
61201;DHT22;47065;52.898;6.992;2022-07-22T15:37:43;20.90;99.90
61201;DHT22;47065;52.898;6.992;2022-07-22T15:40:10;21.10;99.90
61201;DHT22;47065;52.898;6.992;2022-07-22T15:42:37;21.30;99.90